createdAt,value
2022-08-28T00:03:09.568Z,23.30
2022-08-28T00:08:15.087Z,23.50
2022-08-28T00:13:22.116Z,23.60
2022-08-28T00:18:26.603Z,23.70
2022-08-28T00:23:42.460Z,23.70
2022-08-28T00:28:45.883Z,23.60
2022-08-28T00:33:50.964Z,23.50
2022-08-28T00:38:53.759Z,23.50
2022-08-28T00:44:28.200Z,23.50
2022-08-28T00:49:36.088Z,23.50
2022-08-28T00:55:06.077Z,23.50
2022-08-28T01:00:16.598Z,23.40
2022-08-28T01:05:20.530Z,23.40
2022-08-28T01:10:26.683Z,23.40
2022-08-28T01:15:33.807Z,23.30
2022-08-28T01:20:42.853Z,23.30
2022-08-28T01:25:45.836Z,23.20
2022-08-28T01:30:49.613Z,23.10
2022-08-28T01:35:53.959Z,23.10
2022-08-28T01:40:58.248Z,23.00
2022-08-28T01:46:05.906Z,23.00
2022-08-28T01:51:10.703Z,22.90
2022-08-28T01:56:16.212Z,22.90
2022-08-28T02:01:21.925Z,22.80
2022-08-28T02:06:25.816Z,22.80
2022-08-28T02:11:32.950Z,22.80
2022-08-28T02:16:35.951Z,22.70
2022-08-28T02:21:38.938Z,22.60
2022-08-28T02:26:41.732Z,22.50
2022-08-28T02:31:44.484Z,22.50
2022-08-28T02:36:47.968Z,22.50
2022-08-28T02:41:50.995Z,22.40
2022-08-28T02:46:54.039Z,22.40
2022-08-28T02:51:58.930Z,22.40
2022-08-28T02:57:01.922Z,22.30
2022-08-28T03:02:07.321Z,22.30
2022-08-28T03:07:13.686Z,22.20
2022-08-28T03:12:17.173Z,22.20
2022-08-28T03:17:22.169Z,22.10
2022-08-28T03:22:43.731Z,22.00
2022-08-28T03:27:46.788Z,22.00
2022-08-28T03:32:50.462Z,22.10
2022-08-28T03:37:54.026Z,22.00
2022-08-28T03:42:57.105Z,21.90
2022-08-28T03:47:59.996Z,21.80
2022-08-28T03:53:02.968Z,21.70
2022-08-28T03:58:05.913Z,21.60
2022-08-28T04:03:09.358Z,21.60
2022-08-28T04:08:16.098Z,21.60
2022-08-28T04:13:21.057Z,21.60
2022-08-28T04:18:24.113Z,21.60
2022-08-28T04:23:28.734Z,21.70
2022-08-28T04:28:32.735Z,21.70
2022-08-28T04:33:37.045Z,21.60
2022-08-28T04:38:43.913Z,21.60
2022-08-28T04:43:47.666Z,21.60
2022-08-28T04:48:50.639Z,21.50
2022-08-28T04:53:53.677Z,21.50
2022-08-28T04:58:56.717Z,21.50
2022-08-28T05:04:04.034Z,21.50
2022-08-28T05:09:07.051Z,21.60
2022-08-28T05:14:15.230Z,21.70
2022-08-28T05:19:21.066Z,21.90
2022-08-28T05:24:23.933Z,22.10
2022-08-28T05:29:26.769Z,22.20
2022-08-28T05:34:29.659Z,22.40
2022-08-28T05:39:33.022Z,22.60
2022-08-28T05:44:35.971Z,22.70
2022-08-28T05:49:39.068Z,22.90
2022-08-28T05:54:43.198Z,23.00
2022-08-28T05:59:46.102Z,23.10
2022-08-28T06:04:49.820Z,23.30
2022-08-28T06:09:52.620Z,23.50
2022-08-28T06:14:55.514Z,23.70
2022-08-28T06:19:59.752Z,23.90
2022-08-28T06:25:06.377Z,24.10
2022-08-28T06:30:11.746Z,24.30
2022-08-28T06:35:16.076Z,24.40
2022-08-28T06:40:18.931Z,24.50
2022-08-28T06:45:21.753Z,24.50
2022-08-28T06:50:24.646Z,24.50
2022-08-28T06:55:27.480Z,24.50
2022-08-28T07:00:33.532Z,24.60
2022-08-28T07:05:36.312Z,24.70
2022-08-28T07:10:39.082Z,24.80
2022-08-28T07:15:42.122Z,24.90
2022-08-28T07:20:45.996Z,24.90
2022-08-28T07:25:48.840Z,24.90
2022-08-28T07:31:22.255Z,24.90
2022-08-28T07:36:29.432Z,24.90
2022-08-28T07:41:39.290Z,25.00
2022-08-28T07:46:42.550Z,25.10
2022-08-28T07:51:46.729Z,25.20
2022-08-28T07:56:50.265Z,25.50
2022-08-28T08:01:53.422Z,25.90
2022-08-28T08:06:58.239Z,26.20
2022-08-28T08:12:01.241Z,26.50
2022-08-28T08:17:07.337Z,26.80
2022-08-28T08:22:10.435Z,27.00
2022-08-28T08:27:13.448Z,27.20
2022-08-28T08:32:16.418Z,27.40
2022-08-28T08:37:19.527Z,27.60
2022-08-28T08:42:30.519Z,27.60
2022-08-28T08:48:00.538Z,27.50
2022-08-28T08:53:18.509Z,27.40
2022-08-28T08:58:41.278Z,27.40
2022-08-28T09:04:22.713Z,27.30
2022-08-28T09:09:37.263Z,27.50
2022-08-28T09:14:58.531Z,27.60
2022-08-28T09:20:01.534Z,27.70
2022-08-28T09:25:05.929Z,27.90
2022-08-28T09:30:12.034Z,28.10
2022-08-28T09:35:29.273Z,28.30
2022-08-28T09:40:51.449Z,28.50
2022-08-28T09:46:31.056Z,28.70
2022-08-28T09:51:38.821Z,28.90
2022-08-28T09:56:44.812Z,29.10
2022-08-28T10:02:11.575Z,29.30
2022-08-28T10:07:32.370Z,29.50
2022-08-28T10:13:09.643Z,29.70
2022-08-28T10:18:30.666Z,29.90
2022-08-28T10:24:24.727Z,30.00
2022-08-28T10:29:48.192Z,30.20
2022-08-28T10:35:14.035Z,30.40
2022-08-28T10:40:42.163Z,30.70
2022-08-28T10:45:45.635Z,31.00
2022-08-28T10:50:56.156Z,31.30
2022-08-28T10:56:07.444Z,31.40
2022-08-28T11:01:28.608Z,31.50
2022-08-28T11:06:48.118Z,31.60
2022-08-28T11:12:02.504Z,31.70
2022-08-28T11:17:37.660Z,31.80
2022-08-28T11:22:53.124Z,31.80
2022-08-28T11:28:39.098Z,31.50
2022-08-28T11:33:52.553Z,31.30
2022-08-28T11:38:55.848Z,31.40
2022-08-28T11:44:11.211Z,31.60
2022-08-28T11:49:29.942Z,31.80
2022-08-28T11:55:15.820Z,31.90
2022-08-28T12:00:51.280Z,32.10
2022-08-28T12:05:58.045Z,32.20
2022-08-28T12:11:02.034Z,31.90
2022-08-28T12:16:07.678Z,31.50
2022-08-28T12:21:25.944Z,31.10
2022-08-28T12:26:47.751Z,31.10
2022-08-28T12:32:13.640Z,31.10
2022-08-28T12:37:31.292Z,31.10
2022-08-28T12:43:04.932Z,31.40
2022-08-28T12:48:24.198Z,31.60
2022-08-28T12:53:27.146Z,31.60
2022-08-28T12:58:39.526Z,31.60
2022-08-28T13:04:12.049Z,31.60
2022-08-28T13:09:22.555Z,31.70
2022-08-28T13:14:46.228Z,31.80
2022-08-28T13:20:07.466Z,31.80
2022-08-28T13:25:31.109Z,31.60
2022-08-28T13:30:36.584Z,31.60
2022-08-28T13:35:42.018Z,31.40
2022-08-28T13:41:02.677Z,31.40
2022-08-28T13:46:05.696Z,31.30
2022-08-28T13:51:20.809Z,31.10
2022-08-28T13:56:24.511Z,30.90
2022-08-28T14:01:47.634Z,30.50
2022-08-28T14:06:50.775Z,30.40
2022-08-28T14:11:55.860Z,30.60
2022-08-28T14:16:59.682Z,30.60
2022-08-28T14:22:04.163Z,30.80
2022-08-28T14:27:07.126Z,30.90
2022-08-28T14:32:10.105Z,30.90
2022-08-28T14:37:13.957Z,31.00
2022-08-28T14:42:19.409Z,30.80
2022-08-28T14:47:22.517Z,30.70
2022-08-28T14:52:26.464Z,30.70
2022-08-28T14:57:29.411Z,30.90
2022-08-28T15:02:32.084Z,31.00
2022-08-28T15:07:35.137Z,31.00
2022-08-28T15:12:40.275Z,31.10
2022-08-28T15:17:45.490Z,31.10
2022-08-28T15:22:48.507Z,31.00
2022-08-28T15:27:51.668Z,30.90
2022-08-28T15:32:54.552Z,30.90
2022-08-28T15:37:57.517Z,30.80
2022-08-28T15:43:00.581Z,30.70
2022-08-28T15:48:03.976Z,30.60
2022-08-28T15:53:07.788Z,30.50
2022-08-28T15:58:14.344Z,30.20
2022-08-28T16:03:17.511Z,30.10
2022-08-28T16:08:20.760Z,30.00
2022-08-28T16:13:23.764Z,29.80
2022-08-28T16:18:26.667Z,29.60
2022-08-28T16:23:29.420Z,29.40
2022-08-28T16:28:33.398Z,29.10
2022-08-28T16:33:37.595Z,28.90
2022-08-28T16:38:46.573Z,28.60
2022-08-28T16:43:50.719Z,28.30
2022-08-28T16:48:54.685Z,28.20
2022-08-28T16:53:58.541Z,28.00
2022-08-28T16:59:01.413Z,27.80
2022-08-28T17:04:04.292Z,27.70
2022-08-28T17:09:07.333Z,27.50
2022-08-28T17:14:12.156Z,27.40
2022-08-28T17:19:15.827Z,27.20
2022-08-28T17:24:18.893Z,27.10
2022-08-28T17:29:21.869Z,26.90
2022-08-28T17:34:29.952Z,26.70
2022-08-28T17:39:33.132Z,26.60
2022-08-28T17:44:36.606Z,26.50
2022-08-28T17:49:40.633Z,26.30
2022-08-28T17:54:45.778Z,26.20
2022-08-28T17:59:49.063Z,26.10
2022-08-28T18:04:53.970Z,26.00
2022-08-28T18:09:56.986Z,25.90
2022-08-28T18:14:59.758Z,25.90
2022-08-28T18:20:05.576Z,25.80
2022-08-28T18:25:09.316Z,25.70
2022-08-28T18:30:12.616Z,25.70
2022-08-28T18:35:15.574Z,25.70
2022-08-28T18:40:18.835Z,25.60
2022-08-28T18:45:21.663Z,25.60
2022-08-28T18:50:26.907Z,25.50
2022-08-28T18:55:32.280Z,25.40
2022-08-28T19:00:35.154Z,25.50
2022-08-28T19:05:39.539Z,25.50
2022-08-28T19:10:42.513Z,25.50
2022-08-28T19:15:52.817Z,25.50
2022-08-28T19:21:08.987Z,25.50
2022-08-28T19:26:13.222Z,25.50
2022-08-28T19:31:17.576Z,25.50
2022-08-28T19:36:22.111Z,25.50
2022-08-28T19:41:26.390Z,25.40
2022-08-28T19:46:29.918Z,25.40
2022-08-28T19:51:35.345Z,25.30
2022-08-28T19:56:39.979Z,25.10
2022-08-28T20:01:45.085Z,25.00
2022-08-28T20:06:48.199Z,24.90
2022-08-28T20:11:52.625Z,24.80
2022-08-28T20:16:55.694Z,24.70
2022-08-28T20:21:58.538Z,24.60
2022-08-28T20:27:01.366Z,24.60
2022-08-28T20:32:04.368Z,24.40
2022-08-28T20:37:07.299Z,24.30
2022-08-28T20:42:12.085Z,24.20
2022-08-28T20:47:15.196Z,24.20
2022-08-28T20:52:18.345Z,24.20
2022-08-28T20:57:22.901Z,24.10
2022-08-28T21:02:29.157Z,24.00
2022-08-28T21:07:34.182Z,24.00
2022-08-28T21:12:39.131Z,23.90
2022-08-28T21:17:42.577Z,23.90
2022-08-28T21:22:45.745Z,23.80
2022-08-28T21:27:50.584Z,23.70
2022-08-28T21:32:53.797Z,23.60
2022-08-28T21:37:56.626Z,23.60
2022-08-28T21:42:59.579Z,23.60
2022-08-28T21:48:03.321Z,23.60
2022-08-28T21:53:06.253Z,23.60
2022-08-28T21:58:09.718Z,23.50
2022-08-28T22:03:16.312Z,23.40
2022-08-28T22:08:21.567Z,23.30
2022-08-28T22:13:24.737Z,23.30
2022-08-28T22:18:34.040Z,23.20
2022-08-28T22:23:37.993Z,23.10
2022-08-28T22:28:41.216Z,23.00
2022-08-28T22:33:44.841Z,23.00
2022-08-28T22:38:53.193Z,22.90
2022-08-28T22:43:56.436Z,22.80
2022-08-28T22:48:59.536Z,22.70
2022-08-28T22:54:02.706Z,22.70
2022-08-28T22:59:05.665Z,22.70
2022-08-28T23:04:10.619Z,22.70
2022-08-28T23:09:13.655Z,22.70
2022-08-28T23:14:16.697Z,22.70
2022-08-28T23:19:19.540Z,22.70
2022-08-28T23:24:22.430Z,22.60
2022-08-28T23:29:25.416Z,22.60
2022-08-28T23:34:28.255Z,22.60
2022-08-28T23:39:31.090Z,22.50
2022-08-28T23:44:33.962Z,22.50
2022-08-28T23:49:42.758Z,22.50
2022-08-28T23:54:45.909Z,22.50
2022-08-28T23:59:49.576Z,22.50
